Time;durP1;ratioP1;P1;durP2;ratioP2;P2;SDS_P1;SDS_P2;PMS_P1;PMS_P2;Temp;Humidity;BMP_temperature;BMP_pressure;BME280_temperature;BME280_humidity;BME280_pressure;Samples;Min_cycle;Max_cycle;Signal;HPM_P1;HPM_P2
2023/03/18 15:42:19;;;;;;;6.07;2.13;;;;;;;4.44;26.51;101054.97;5090275;27;20429;-36
2023/03/18 15:44:51;;;;;;;4.57;1.60;;;;;;;4.41;26.71;101052.34;5083333;28;20047;-36
2023/03/18 15:47:22;;;;;;;4.72;1.25;;;;;;;4.18;27.01;101012.59;5094362;28;20092;-38
2023/03/18 15:50:00;;;;;;;4.43;2.13;;;;;;;4.37;27.20;101041.97;5085506;28;20046;-38
2023/03/18 15:52:32;;;;;;;7.65;1.83;;;;;;;4.39;27.34;101050.59;5086363;28;20040;-36
2023/03/18 15:54:58;;;;;;;13.82;4.10;;;;;;;4.37;27.01;101040.28;5113848;27;20042;-39
2023/03/18 15:57:39;;;;;;;8.95;3.22;;;;;;;4.15;26.96;101013.41;5103866;28;20043;-40
2023/03/18 16:00:09;;;;;;;10.55;3.03;;;;;;;4.22;26.70;101030.66;5104495;28;20077;-38
2023/03/18 16:02:42;;;;;;;18.10;6.07;;;;;;;4.35;26.81;101051.38;5086655;28;20046;-37
2023/03/18 16:05:20;;;;;;;9.52;2.63;;;;;;;4.35;26.73;101052.25;5087668;28;20126;-37
2023/03/18 16:07:46;;;;;;;10.80;1.95;;;;;;;4.19;26.65;101030.59;5111228;28;20115;-37
2023/03/18 16:10:17;;;;;;;17.35;6.25;;;;;;;4.16;26.37;101030.56;5069119;28;20067;-37
2023/03/18 16:12:45;;;;;;;6.43;3.08;;;;;;;4.29;26.35;101057.34;5090014;28;20040;-40
2023/03/18 16:15:20;;;;;;;9.30;2.35;;;;;;;4.29;26.37;101057.34;5098706;28;20040;-39
2023/03/18 16:17:52;;;;;;;8.73;2.33;;;;;;;4.24;25.98;101053.81;5104018;28;20075;-38
2023/03/18 16:20:21;;;;;;;4.82;2.28;;;;;;;4.21;26.06;101052.09;5087801;28;20029;-37
2023/03/18 16:22:48;;;;;;;;;;;;;;;4.18;26.03;101056.34;5107050;28;20130;-37
2023/03/18 16:25:14;;;;;;;7.55;2.15;;;;;;;3.93;26.07;101021.66;5107341;28;19916;-37
2023/03/18 16:27:45;;;;;;;5.05;1.85;;;;;;;4.06;25.87;101056.16;5101218;28;20028;-38
2023/03/18 16:30:18;;;;;;;7.43;1.90;;;;;;;4.01;25.83;101056.09;5096396;28;20036;-37
2023/03/18 16:32:44;;;;;;;15.95;6.95;;;;;;;3.97;26.02;101053.47;5094264;28;20079;-38
2023/03/18 16:35:19;;;;;;;10.23;4.72;;;;;;;3.93;26.25;101054.25;5094068;28;20123;-38
2023/03/18 16:37:46;;;;;;;14.68;4.28;;;;;;;3.90;26.62;101049.94;5055599;28;20090;-37
2023/03/18 16:40:18;;;;;;;15.02;3.30;;;;;;;3.88;26.57;101054.19;5090664;28;20071;-37
2023/03/18 16:42:44;;;;;;;11.80;3.47;;;;;;;3.84;26.70;101053.28;5092351;28;20040;-36
2023/03/18 16:45:15;;;;;;;12.07;3.00;;;;;;;3.79;26.68;101049.78;5092786;28;20044;-38
2023/03/18 16:47:43;;;;;;;9.38;2.58;;;;;;;3.69;26.61;101050.47;5108411;27;20127;-38
2023/03/18 16:50:16;;;;;;;42.40;18.15;;;;;;;3.70;26.89;101047.06;5093314;28;20039;-38
2023/03/18 16:52:43;;;;;;;13.43;6.75;;;;;;;3.67;26.89;101049.59;5050431;28;20044;-37
2023/03/18 16:55:13;;;;;;;19.73;7.32;;;;;;;3.48;27.20;101016.72;5098018;28;20046;-38
2023/03/18 16:57:46;;;;;;;14.38;4.45;;;;;;;3.58;27.08;101040.88;5096006;28;20047;-37
2023/03/18 17:00:22;;;;;;;10.95;4.03;;;;;;;3.52;27.14;101045.91;5075462;28;20040;-36
2023/03/18 17:02:51;;;;;;;6.75;3.08;;;;;;;3.44;27.36;101037.22;5071084;28;20046;-38
2023/03/18 17:05:19;;;;;;;9.75;2.20;;;;;;;3.37;27.40;101043.97;5094347;28;20059;-39
2023/03/18 17:07:46;;;;;;;7.80;2.20;;;;;;;3.31;27.41;101051.56;5073434;28;20043;-38
2023/03/18 17:10:14;;;;;;;13.32;3.25;;;;;;;3.25;27.53;101043.75;5082200;28;20075;-38
2023/03/18 17:12:45;;;;;;;5.72;2.63;;;;;;;3.18;27.68;101047.94;5090242;28;20583;-39
2023/03/18 17:15:14;;;;;;;14.60;2.97;;;;;;;3.11;27.75;101040.06;5090809;28;20119;-38
2023/03/18 17:17:40;;;;;;;8.30;3.00;;;;;;;2.92;27.60;101010.66;5070352;28;20044;-39
2023/03/18 17:20:19;;;;;;;7.70;3.05;;;;;;;3.04;28.02;101035.66;5071418;28;20411;-39
2023/03/18 17:22:46;;;;;;;;;;;;;;;3.01;28.22;101039.06;5071457;28;20636;-38
2023/03/18 17:25:12;;;;;;;9.45;2.65;;;;;;;2.94;28.42;101032.94;5077768;28;19916;-37
2023/03/18 17:27:47;;;;;;;5.05;2.25;;;;;;;2.91;28.68;101032.91;5074799;28;20131;-37
2023/03/18 17:30:19;;;;;;;14.50;3.67;;;;;;;2.88;28.62;101030.25;5088062;28;20032;-38
2023/03/18 17:32:46;;;;;;;36.50;13.93;;;;;;;2.84;28.71;101036.19;5081184;28;20446;-38
2023/03/18 17:35:17;;;;;;;17.17;6.80;;;;;;;2.82;28.89;101034.44;5044385;28;20087;-39
2023/03/18 17:37:43;;;;;;;16.23;4.15;;;;;;;2.78;29.03;101035.19;5073348;28;20048;-38
2023/03/18 17:40:14;;;;;;;8.90;2.45;;;;;;;2.76;29.07;101037.75;5087606;28;20053;-38
2023/03/18 17:42:40;;;;;;;8.82;2.90;;;;;;;2.72;29.18;101030.81;5074120;28;20135;-35
2023/03/18 17:45:25;;;;;;;13.00;2.75;;;;;;;2.68;29.67;101034.16;5075684;28;20482;-37
2023/03/18 17:47:52;;;;;;;4.13;2.22;;;;;;;2.63;29.67;101038.34;5076103;28;20193;-37
2023/03/18 17:50:19;;;;;;;5.13;2.20;;;;;;;2.60;29.60;101047.69;5072012;28;20476;-39
2023/03/18 17:52:48;;;;;;;9.98;4.10;;;;;;;2.55;29.73;101038.22;5071306;28;20056;-37
2023/03/18 17:55:22;;;;;;;9.38;2.90;;;;;;;2.51;30.11;101038.13;5061005;28;20032;-38
2023/03/18 17:57:49;;;;;;;10.93;2.60;;;;;;;2.39;30.12;101028.47;5069863;28;20040;-37
2023/03/18 18:00:20;;;;;;;6.53;2.50;;;;;;;2.45;30.23;101044.00;5068621;28;20033;-38
2023/03/18 18:02:47;;;;;;;5.57;2.35;;;;;;;2.41;30.52;101046.44;5072975;28;20039;-39
2023/03/18 18:05:18;;;;;;;8.13;2.97;;;;;;;2.37;30.25;101050.66;5071281;28;20039;-38
2023/03/18 18:07:44;;;;;;;10.65;3.03;;;;;;;2.34;31.02;101040.34;5076373;28;20572;-37
2023/03/18 18:10:14;;;;;;;8.98;2.35;;;;;;;2.31;31.26;101049.66;5075840;28;20032;-39
2023/03/18 18:12:44;;;;;;;10.55;3.33;;;;;;;2.08;31.15;101026.97;5062575;28;20416;-41
2023/03/18 18:15:16;;;;;;;10.65;2.80;;;;;;;2.24;31.22;101043.56;5078644;28;20032;-39
2023/03/18 18:17:42;;;;;;;6.00;2.20;;;;;;;2.08;31.57;101019.28;5086194;28;20043;-39
2023/03/18 18:20:14;;;;;;;9.80;2.33;;;;;;;2.03;31.48;101013.19;5077564;28;20450;-39
2023/03/18 18:22:43;;;;;;;7.80;2.53;;;;;;;2.14;31.61;101036.50;5081753;28;20032;-39
2023/03/18 18:25:15;;;;;;;5.10;2.20;;;;;;;2.13;32.30;101050.16;5050885;28;20138;-39
2023/03/18 18:27:41;;;;;;;11.88;2.72;;;;;;;2.11;32.05;101047.53;5079962;28;20397;-39
2023/03/18 18:30:16;;;;;;;24.02;7.90;;;;;;;2.10;32.40;101042.38;5075349;28;20528;-40
2023/03/18 18:32:44;;;;;;;64.50;24.98;;;;;;;2.04;32.73;101049.97;5078253;28;20052;-39
2023/03/18 18:35:18;;;;;;;33.25;12.13;;;;;;;2.01;33.31;101042.19;5085693;28;20048;-38
2023/03/18 18:37:45;;;;;;;30.42;9.65;;;;;;;1.95;33.47;101052.28;5075541;28;20126;-39
2023/03/18 18:40:13;;;;;;;48.28;16.42;;;;;;;1.75;33.80;101023.66;5081267;28;20448;-39
2023/03/18 18:42:40;;;;;;;36.72;13.95;;;;;;;1.66;34.04;101015.75;5081126;28;20746;-39
2023/03/18 18:45:08;;;;;;;32.65;12.45;;;;;;;1.58;34.16;101004.44;5086046;28;20057;-39
2023/03/18 18:47:36;;;;;;;20.00;6.93;;;;;;;1.51;34.68;101010.28;5065440;28;20048;-37
2023/03/18 18:50:05;;;;;;;11.97;4.73;;;;;;;1.66;35.13;101038.84;5077738;28;20040;-39
2023/03/18 18:52:32;;;;;;;10.00;3.28;;;;;;;1.58;34.99;101037.78;5080778;28;20041;-37
2023/03/18 18:54:59;;;;;;;12.55;3.83;;;;;;;1.52;35.17;101035.94;5067801;28;20424;-46
2023/03/18 18:57:35;;;;;;;10.57;3.35;;;;;;;1.47;34.88;101032.38;5072231;28;20040;-38
2023/03/18 19:00:05;;;;;;;8.50;3.20;;;;;;;1.42;35.64;101039.09;5072490;28;20032;-38
2023/03/18 19:02:33;;;;;;;6.85;2.72;;;;;;;1.38;35.36;101033.88;5083232;28;20094;-41
2023/03/18 19:05:01;;;;;;;7.72;3.10;;;;;;;1.14;36.02;101005.97;5075730;28;20036;-38
2023/03/18 19:07:28;;;;;;;8.57;3.10;;;;;;;1.12;36.31;101005.06;5074592;28;20047;-39
2023/03/18 19:09:55;;;;;;;13.57;5.22;;;;;;;1.25;36.24;101027.59;5078256;28;20040;-38
2023/03/18 19:12:21;;;;;;;18.35;8.07;;;;;;;1.22;36.59;101032.63;5088102;28;20063;-38
2023/03/18 19:14:48;;;;;;;8.23;3.58;;;;;;;1.20;37.09;101024.91;5089374;28;20036;-37
2023/03/18 19:17:17;;;;;;;9.45;3.10;;;;;;;1.17;37.06;101024.84;5078738;28;20065;-37
2023/03/18 19:19:44;;;;;;;6.32;3.08;;;;;;;1.05;37.77;101005.72;5056250;28;20044;-38
2023/03/18 19:22:15;;;;;;;9.73;3.40;;;;;;;0.94;37.60;100985.00;5063378;28;20049;-37
2023/03/18 19:24:42;;;;;;;9.32;3.65;;;;;;;1.13;37.70;101020.47;5077945;28;20040;-37
2023/03/18 19:27:23;;;;;;;8.55;3.38;;;;;;;1.09;37.93;101013.53;5080724;28;20466;-38
2023/03/18 19:29:52;;;;;;;10.07;3.20;;;;;;;0.93;37.70;100987.50;5066050;28;20048;-39
2023/03/18 19:32:19;;;;;;;6.35;2.97;;;;;;;1.09;38.40;101005.00;5084371;28;20052;-38
2023/03/18 19:34:51;;;;;;;9.15;3.20;;;;;;;1.05;38.57;100998.91;5060459;28;20047;-38
2023/03/18 19:37:31;;;;;;;7.85;3.10;;;;;;;1.04;39.07;101012.56;5095159;28;20036;-38
2023/03/18 19:39:58;;;;;;;10.02;3.67;;;;;;;0.99;38.89;101001.34;5075003;28;20047;-38
2023/03/18 19:42:25;;;;;;;10.38;3.67;;;;;;;0.96;39.12;100993.56;5063702;28;20064;-38
2023/03/18 19:44:51;;;;;;;15.20;3.58;;;;;;;0.94;39.17;100999.50;5072376;28;20075;-39
2023/03/18 19:47:23;;;;;;;7.70;3.40;;;;;;;0.71;39.31;100958.81;5071671;28;20068;-38
2023/03/18 19:49:50;;;;;;;10.73;3.30;;;;;;;0.90;39.42;100990.84;5052305;28;20139;-38
2023/03/18 19:52:23;;;;;;;9.15;2.95;;;;;;;0.87;39.74;100988.22;5077704;28;20044;-38
2023/03/18 19:54:50;;;;;;;7.60;3.33;;;;;;;0.88;40.18;100989.09;5076097;28;20036;-38
2023/03/18 19:57:43;;;;;;;7.13;3.20;;;;;;;0.84;40.67;100977.88;5087854;28;20048;-38
2023/03/18 20:00:30;;;;;;;8.70;2.78;;;;;;;0.83;40.90;100979.59;5075309;28;20541;-37
2023/03/18 20:02:57;;;;;;;9.80;2.90;;;;;;;0.80;40.38;100974.38;5072224;28;20053;-38
2023/03/18 20:05:24;;;;;;;10.40;3.47;;;;;;;0.51;40.99;100928.41;5075806;28;20058;-38
2023/03/18 20:07:51;;;;;;;9.90;3.40;;;;;;;0.75;41.08;100975.97;5069080;28;20036;-39
2023/03/18 20:10:19;;;;;;;7.82;3.00;;;;;;;0.74;41.15;100979.34;5069834;28;20051;-38
2023/03/18 20:12:49;;;;;;;7.38;3.65;;;;;;;0.72;40.96;100975.91;5063955;28;20040;-38
2023/03/18 20:15:17;;;;;;;11.65;3.53;;;;;;;0.69;40.88;100974.94;5088009;28;20036;-39
2023/03/18 20:17:45;;;;;;;7.82;3.78;;;;;;;0.63;41.26;100972.25;5074094;28;20085;-38
2023/03/18 20:20:17;;;;;;;9.63;3.28;;;;;;;0.60;41.51;100967.03;5071108;28;20064;-36
2023/03/18 20:22:58;;;;;;;7.63;3.53;;;;;;;0.58;41.59;100964.41;5086982;28;20044;-38
2023/03/18 20:25:34;;;;;;;6.88;3.17;;;;;;;0.57;42.02;100970.38;5085485;28;20062;-37
2023/03/18 20:28:03;;;;;;;9.88;3.78;;;;;;;0.55;41.62;100977.13;5087580;28;20052;-38
2023/03/18 20:30:31;;;;;;;10.02;3.85;;;;;;;0.36;41.63;100937.41;5080588;28;20045;-39
2023/03/18 20:32:58;;;;;;;11.57;3.70;;;;;;;0.55;41.32;100968.59;5076907;28;20044;-37
2023/03/18 20:35:27;;;;;;;9.18;3.20;;;;;;;0.43;41.68;100948.66;5088061;28;20052;-39
2023/03/18 20:37:54;;;;;;;16.45;5.25;;;;;;;0.57;41.40;100972.94;5081555;28;20039;-40
2023/03/18 20:40:25;;;;;;;13.18;3.55;;;;;;;0.55;41.24;100974.59;5083965;28;20039;-38
2023/03/18 20:42:51;;;;;;;10.27;3.85;;;;;;;0.54;41.45;100975.41;5079703;28;20574;-38
2023/03/18 20:45:18;;;;;;;7.75;3.35;;;;;;;0.52;41.26;100976.19;5067534;28;20036;-39
2023/03/18 20:47:44;;;;;;;13.40;4.10;;;;;;;0.53;41.08;100967.69;5079462;28;20408;-36
2023/03/18 20:50:16;;;;;;;10.15;3.25;;;;;;;0.55;41.06;100963.47;5076024;28;20648;-37
2023/03/18 20:52:43;;;;;;;16.27;5.60;;;;;;;0.52;41.13;100971.09;5075385;28;20055;-40
2023/03/18 20:55:31;;;;;;;9.15;3.55;;;;;;;0.48;41.18;100961.56;5083306;28;20043;-40
2023/03/18 20:57:59;;;;;;;11.00;3.60;;;;;;;0.47;41.00;100960.72;5060422;28;20059;-37
2023/03/18 21:00:28;;;;;;;9.77;3.33;;;;;;;0.45;40.85;100967.50;5074622;28;20131;-37
2023/03/18 21:02:57;;;;;;;7.22;3.20;;;;;;;0.43;40.66;100962.31;5073330;28;20041;-38
2023/03/18 21:05:24;;;;;;;13.07;4.18;;;;;;;0.42;40.57;100957.16;5080187;28;20617;-39
2023/03/18 21:07:51;;;;;;;9.07;2.90;;;;;;;0.43;40.56;100966.56;5074136;28;20044;-38
2023/03/18 21:10:22;;;;;;;13.15;3.08;;;;;;;0.42;40.44;100955.47;5071983;28;20032;-37
2023/03/18 21:12:48;;;;;;;13.82;3.40;;;;;;;0.38;40.42;100945.97;5073264;28;20047;-38
2023/03/18 21:15:16;;;;;;;6.65;2.90;;;;;;;0.35;40.40;100950.16;5070488;28;20044;-45
2023/03/18 21:17:42;;;;;;;12.15;2.88;;;;;;;0.32;39.98;100950.06;5089736;28;20115;-37
2023/03/18 21:20:14;;;;;;;4.10;2.33;;;;;;;0.32;40.06;100950.94;5078722;28;20078;-38
2023/03/18 21:22:41;;;;;;;9.93;2.67;;;;;;;0.06;40.00;100903.31;5067670;28;20588;-38
2023/03/18 21:25:20;;;;;;;4.47;2.45;;;;;;;0.29;39.70;100939.75;5076012;28;20097;-37
2023/03/18 21:27:47;;;;;;;10.77;2.92;;;;;;;0.27;39.60;100939.72;5077978;28;20507;-37
2023/03/18 21:30:14;;;;;;;7.55;2.75;;;;;;;0.29;39.54;100937.19;5079750;28;20148;-38
2023/03/18 21:32:41;;;;;;;8.25;3.45;;;;;;;0.26;39.92;100937.13;5089576;28;20047;-37
2023/03/18 21:35:21;;;;;;;5.13;2.92;;;;;;;0.25;40.00;100938.81;5059086;28;20124;-38
2023/03/18 21:37:48;;;;;;;9.02;3.42;;;;;;;0.21;39.93;100939.53;5081620;28;20190;-37
2023/03/18 21:40:20;;;;;;;7.85;3.33;;;;;;;0.25;40.22;100941.38;5078808;28;20558;-38
2023/03/18 21:42:46;;;;;;;5.72;2.50;;;;;;;0.20;40.20;100931.84;5077113;28;20055;-37
2023/03/18 21:45:14;;;;;;;7.25;3.38;;;;;;;0.19;40.34;100943.75;5079912;28;20047;-37
2023/03/18 21:47:42;;;;;;;5.13;2.55;;;;;;;0.15;40.24;100946.19;5079093;28;20537;-38
2023/03/18 21:50:25;;;;;;;10.82;3.08;;;;;;;0.10;40.14;100938.41;5072954;28;20040;-37
2023/03/18 21:52:52;;;;;;;4.53;2.03;;;;;;;0.08;40.32;100931.50;5065449;28;20423;-37
2023/03/18 21:55:18;;;;;;;9.00;2.60;;;;;;;0.06;40.38;100938.25;5075109;28;20046;-38
2023/03/18 21:57:44;;;;;;;9.90;3.97;;;;;;;0.04;40.42;100940.78;5085528;28;20063;-37
2023/03/18 22:00:20;;;;;;;6.18;2.63;;;;;;;0.01;40.05;100935.56;5075660;28;20097;-38
2023/03/18 22:02:47;;;;;;;6.65;2.20;;;;;;;-0.16;40.22;100906.13;5081226;28;20039;-37
2023/03/18 22:05:18;;;;;;;5.25;2.58;;;;;;;-0.05;40.42;100931.16;5082159;28;20506;-37
2023/03/18 22:07:45;;;;;;;9.45;4.20;;;;;;;-0.06;40.39;100932.00;5077431;28;20036;-37
2023/03/18 22:10:18;;;;;;;6.07;2.97;;;;;;;-0.08;40.55;100922.53;5078850;28;20050;-38
2023/03/18 22:12:44;;;;;;;14.48;2.95;;;;;;;-0.09;40.74;100931.03;5071778;28;20044;-37
2023/03/18 22:15:22;;;;;;;5.55;2.97;;;;;;;-0.12;40.83;100921.59;5073549;28;20036;-37
2023/03/18 22:17:49;;;;;;;5.47;2.60;;;;;;;-0.11;40.69;100927.56;5096260;28;20036;-38
2023/03/18 22:20:16;;;;;;;5.90;2.85;;;;;;;-0.13;40.91;100929.22;5075183;28;20044;-36
2023/03/18 22:22:42;;;;;;;8.30;3.15;;;;;;;-0.35;40.84;100897.06;5074872;28;20565;-37
2023/03/18 22:25:31;;;;;;;6.13;3.35;;;;;;;-0.18;41.04;100925.66;5089173;28;20504;-38
2023/03/18 22:27:58;;;;;;;11.73;3.28;;;;;;;-0.18;41.07;100923.09;5063734;28;20075;-38
2023/03/18 22:30:25;;;;;;;12.18;4.00;;;;;;;-0.20;40.96;100928.16;5074284;28;20036;-38
2023/03/18 22:32:52;;;;;;;8.90;3.50;;;;;;;-0.20;41.58;100930.72;5057043;28;20046;-36
2023/03/18 22:35:20;;;;;;;9.55;3.63;;;;;;;-0.24;41.37;100917.81;5058333;28;20048;-39
2023/03/18 22:37:46;;;;;;;7.47;3.58;;;;;;;-0.27;41.43;100920.28;5077988;28;20040;-37
2023/03/18 22:40:20;;;;;;;7.88;3.22;;;;;;;-0.30;41.50;100917.63;5080494;28;20040;-38
2023/03/18 22:42:52;;;;;;;6.97;3.08;;;;;;;-0.28;41.64;100916.00;5080029;28;20051;-38
2023/03/18 22:45:29;;;;;;;10.35;3.65;;;;;;;-0.30;41.79;100915.94;5072807;28;20040;-37
2023/03/18 22:47:57;;;;;;;7.03;2.90;;;;;;;-0.32;41.85;100911.63;5080992;28;20036;-38
2023/03/18 22:50:26;;;;;;;7.70;3.70;;;;;;;-0.33;41.79;100909.88;5073374;28;20081;-37
2023/03/18 22:53:01;;;;;;;12.90;3.50;;;;;;;-0.34;42.18;100905.59;5091669;28;20032;-37
2023/03/18 22:55:31;;;;;;;6.30;3.17;;;;;;;-0.57;42.41;100880.22;5072108;28;20048;-37
2023/03/18 22:57:57;;;;;;;5.70;3.20;;;;;;;-0.38;42.43;100898.66;5050065;28;20083;-38
2023/03/18 23:00:37;;;;;;;9.15;3.20;;;;;;;-0.38;42.49;100911.44;5068363;28;20163;-38
2023/03/18 23:03:10;;;;;;;9.35;3.83;;;;;;;-0.42;42.75;100901.13;5074368;28;20052;-37
2023/03/18 23:05:37;;;;;;;7.93;3.53;;;;;;;-0.44;42.52;100907.88;5077601;28;20040;-36
2023/03/18 23:08:03;;;;;;;8.82;3.67;;;;;;;-0.44;42.63;100909.56;5077231;28;20040;-38
2023/03/18 23:10:29;;;;;;;7.75;2.97;;;;;;;-0.45;42.87;100898.47;5094258;28;20055;-37
2023/03/18 23:12:55;;;;;;;8.18;3.20;;;;;;;-0.43;42.69;100895.97;5073941;28;20044;-38
2023/03/18 23:15:21;;;;;;;9.05;3.25;;;;;;;-0.45;42.90;100895.06;5074122;28;20119;-37
2023/03/18 23:17:48;;;;;;;10.10;3.88;;;;;;;-0.66;43.11;100859.53;5078720;28;20411;-38
2023/03/18 23:20:16;;;;;;;8.45;2.70;;;;;;;-0.51;42.81;100890.63;5077054;28;20057;-38
2023/03/18 23:22:44;;;;;;;6.63;2.97;;;;;;;-0.51;43.13;100895.75;5072379;28;20515;-36
2023/03/18 23:25:16;;;;;;;8.32;2.97;;;;;;;-0.50;43.30;100886.41;5091343;28;20095;-46
2023/03/18 23:27:43;;;;;;;8.48;3.30;;;;;;;-0.50;43.25;100881.28;5079193;28;20101;-38
2023/03/18 23:30:11;;;;;;;14.07;4.15;;;;;;;-0.73;43.08;100852.50;5076865;28;20048;-38
2023/03/18 23:32:37;;;;;;;7.50;3.05;;;;;;;-0.54;43.25;100889.69;5094426;28;20040;-38
2023/03/18 23:35:04;;;;;;;7.97;2.90;;;;;;;-0.58;43.12;100883.63;5082041;28;20574;-38
2023/03/18 23:37:30;;;;;;;6.65;2.88;;;;;;;-0.57;43.10;100881.91;5080540;28;20170;-36
2023/03/18 23:39:56;;;;;;;7.60;3.20;;;;;;;-0.63;43.00;100880.03;5068621;28;20423;-37
2023/03/18 23:42:22;;;;;;;6.63;2.60;;;;;;;-0.67;43.25;100870.56;5079940;28;20052;-38
2023/03/18 23:44:48;;;;;;;8.07;2.50;;;;;;;-0.65;43.52;100873.19;5079416;28;20158;-37
2023/03/18 23:47:15;;;;;;;8.82;3.38;;;;;;;-0.66;43.30;100866.34;5078464;28;20122;-38
2023/03/18 23:49:41;;;;;;;8.85;2.97;;;;;;;-0.66;43.40;100863.78;5073849;28;20043;-39
2023/03/18 23:52:14;;;;;;;6.97;3.10;;;;;;;-0.67;43.35;100869.69;5072724;28;20036;-38
2023/03/18 23:54:40;;;;;;;8.43;2.75;;;;;;;-0.87;43.46;100834.25;5077941;28;20044;-37
2023/03/18 23:57:08;;;;;;;5.10;2.60;;;;;;;-0.75;43.45;100856.72;5071562;28;20040;-36
2023/03/18 23:59:35;;;;;;;8.43;2.65;;;;;;;-1.15;43.49;100795.09;5073892;28;20051;-37
